Time;durP1;ratioP1;P1;durP2;ratioP2;P2;SDS_P1;SDS_P2;PMS_P1;PMS_P2;Temp;Humidity;BMP_temperature;BMP_pressure;BME280_temperature;BME280_humidity;BME280_pressure;Samples;Min_cycle;Max_cycle;Signal;HPM_P1;HPM_P2
2021/07/03 00:00:17;;;;;;;21.52;16.38;;;18.20;95.30;;;;;;5052128;28;20039;-87
2021/07/03 00:02:43;;;;;;;20.33;16.45;;;18.20;95.30;;;;;;5074501;28;20016;-87
2021/07/03 00:05:09;;;;;;;20.15;15.73;;;18.20;95.40;;;;;;5057639;28;20028;-87
2021/07/03 00:07:35;;;;;;;19.67;15.40;;;18.20;95.10;;;;;;5057495;28;20046;-87
2021/07/03 00:10:03;;;;;;;19.90;15.85;;;18.10;95.20;;;;;;5074237;28;20368;-87
2021/07/03 00:12:29;;;;;;;21.10;16.17;;;18.10;95.60;;;;;;5060194;28;20062;-87
2021/07/03 00:14:54;;;;;;;17.88;13.93;;;18.10;95.30;;;;;;5037484;28;20086;-87
2021/07/03 00:17:20;;;;;;;20.08;14.07;;;18.00;95.30;;;;;;5038072;28;20032;-87
2021/07/03 00:19:46;;;;;;;17.30;13.68;;;18.00;95.30;;;;;;5057405;28;20024;-87
2021/07/03 00:22:11;;;;;;;17.17;13.20;;;18.00;95.30;;;;;;5040699;28;20746;-87
2021/07/03 00:24:37;;;;;;;16.05;12.73;;;18.00;95.30;;;;;;5040238;28;20546;-87
2021/07/03 00:27:03;;;;;;;17.20;12.75;;;17.90;95.30;;;;;;5052404;28;20020;-87
2021/07/03 00:29:28;;;;;;;18.50;14.02;;;17.90;95.30;;;;;;5040854;28;20106;-87
2021/07/03 00:31:54;;;;;;;18.98;13.25;;;17.90;95.60;;;;;;5040413;28;20460;-86
2021/07/03 00:34:20;;;;;;;17.90;14.20;;;17.90;95.40;;;;;;5057425;28;20065;-87
2021/07/03 00:36:45;;;;;;;18.02;13.90;;;17.80;95.50;;;;;;5037671;28;20063;-87
2021/07/03 00:39:11;;;;;;;16.17;11.57;;;17.80;95.30;;;;;;5026302;28;20071;-87
2021/07/03 00:41:36;;;;;;;13.57;10.07;;;17.80;95.40;;;;;;5056257;28;20031;-86
2021/07/03 00:44:02;;;;;;;12.93;10.43;;;17.70;95.30;;;;;;5027570;28;20464;-87
2021/07/03 00:46:28;;;;;;;13.18;10.38;;;17.70;95.40;;;;;;5040412;28;20465;-87
2021/07/03 00:48:53;;;;;;;13.88;10.80;;;17.70;95.50;;;;;;5037085;28;20025;-87
2021/07/03 00:51:19;;;;;;;15.40;11.43;;;17.70;95.40;;;;;;5056975;28;20393;-87
2021/07/03 00:53:45;;;;;;;16.90;10.63;;;17.60;95.40;;;;;;5056898;28;20050;-87
2021/07/03 00:56:11;;;;;;;12.63;9.93;;;17.60;95.50;;;;;;5062262;28;20027;-86
2021/07/03 00:58:36;;;;;;;13.73;10.55;;;17.60;95.40;;;;;;5055388;28;20033;-87
2021/07/03 01:01:02;;;;;;;13.18;10.30;;;17.60;95.40;;;;;;5053979;28;20359;-86
2021/07/03 01:03:28;;;;;;;14.02;11.00;;;17.60;95.40;;;;;;5040767;28;20462;-87
2021/07/03 01:05:53;;;;;;;18.40;12.85;;;17.50;95.30;;;;;;5059256;28;20119;-87
2021/07/03 01:08:19;;;;;;;17.85;12.88;;;17.50;95.40;;;;;;5077289;28;20132;-87
2021/07/03 01:10:45;;;;;;;15.90;12.05;;;17.50;95.50;;;;;;5060387;28;20024;-86
2021/07/03 01:13:11;;;;;;;16.45;12.70;;;17.40;95.50;;;;;;5073681;28;20439;-85
2021/07/03 01:15:36;;;;;;;16.95;12.23;;;17.40;95.60;;;;;;5088146;28;20059;-87
2021/07/03 01:18:03;;;;;;;16.30;12.90;;;17.40;95.70;;;;;;5088001;28;20032;-86
2021/07/03 01:20:29;;;;;;;14.07;11.88;;;17.40;96.00;;;;;;5088832;28;20023;-86
2021/07/03 01:22:55;;;;;;;16.20;12.73;;;17.40;95.70;;;;;;5080393;28;20024;-86
2021/07/03 01:25:21;;;;;;;25.65;15.57;;;17.30;95.50;;;;;;5101555;28;20101;-87
2021/07/03 01:28:01;;;;;;;23.05;17.40;;;17.30;95.60;;;;;;5105375;28;20500;-86
2021/07/03 01:30:27;;;;;;;20.20;15.93;;;17.30;95.60;;;;;;5109405;28;20032;-86
2021/07/03 01:32:53;;;;;;;23.42;16.73;;;17.20;95.60;;;;;;5076695;28;20426;-87
2021/07/03 01:35:27;;;;;;;20.35;15.27;;;17.20;95.70;;;;;;5076792;28;20028;-87
2021/07/03 01:37:53;;;;;;;21.90;15.85;;;17.20;95.90;;;;;;5069208;28;20505;-87
2021/07/03 01:40:19;;;;;;;19.67;14.90;;;17.20;95.80;;;;;;5053037;28;20047;-86
2021/07/03 01:42:44;;;;;;;16.33;13.00;;;17.20;95.90;;;;;;5073533;28;20549;-86
2021/07/03 01:45:10;;;;;;;16.25;12.57;;;17.20;95.90;;;;;;5071609;28;20032;-87
2021/07/03 01:47:49;;;;;;;17.33;13.10;;;17.10;95.90;;;;;;5096766;28;20031;-87
2021/07/03 01:50:15;;;;;;;18.70;13.45;;;17.10;95.90;;;;;;5102658;28;20024;-87
2021/07/03 01:52:41;;;;;;;17.25;13.25;;;17.10;96.00;;;;;;5076762;28;20035;-87
2021/07/03 01:55:09;;;;;;;18.45;14.57;;;17.10;95.90;;;;;;5102594;28;20023;-87
2021/07/03 01:57:35;;;;;;;16.80;13.07;;;17.10;96.00;;;;;;5068314;28;20022;-87
2021/07/03 02:00:05;;;;;;;18.23;12.90;;;17.00;96.00;;;;;;5089675;28;20040;-87
2021/07/03 02:02:31;;;;;;;17.60;13.40;;;17.10;96.00;;;;;;5076762;28;20020;-87
2021/07/03 02:04:57;;;;;;;18.67;13.18;;;17.00;96.10;;;;;;5079511;28;20020;-87
2021/07/03 02:07:22;;;;;;;17.45;12.57;;;17.00;96.00;;;;;;5068106;28;20040;-87
2021/07/03 02:09:48;;;;;;;19.90;13.43;;;17.00;96.00;;;;;;5060475;28;20445;-87
2021/07/03 02:12:14;;;;;;;20.38;14.07;;;16.90;95.90;;;;;;5069932;28;20035;-87
2021/07/03 02:14:39;;;;;;;16.92;13.45;;;16.90;95.90;;;;;;5090372;28;20063;-87
2021/07/03 02:17:05;;;;;;;19.17;13.45;;;16.90;96.00;;;;;;5076180;28;20024;-86
2021/07/03 02:19:30;;;;;;;17.50;13.50;;;16.90;96.00;;;;;;5075891;28;20035;-87
2021/07/03 02:21:56;;;;;;;18.90;13.15;;;16.80;96.00;;;;;;5097701;28;20045;-87
2021/07/03 02:24:22;;;;;;;15.43;12.10;;;16.80;96.10;;;;;;5096432;28;20411;-87
2021/07/03 02:26:48;;;;;;;16.83;11.65;;;16.80;96.10;;;;;;5093703;28;20544;-87
2021/07/03 02:29:14;;;;;;;16.50;11.73;;;16.80;96.10;;;;;;5075976;28;20048;-87
2021/07/03 02:31:39;;;;;;;17.02;11.85;;;16.80;96.20;;;;;;5090787;28;20024;-87
2021/07/03 02:34:05;;;;;;;14.02;10.52;;;16.80;96.10;;;;;;5069417;28;20012;-87
2021/07/03 02:36:31;;;;;;;15.88;11.70;;;16.70;96.00;;;;;;5068552;28;20545;-87
2021/07/03 02:38:57;;;;;;;18.77;12.63;;;16.70;95.90;;;;;;5042844;28;20023;-87
2021/07/03 02:41:23;;;;;;;17.80;12.07;;;16.70;96.00;;;;;;5055647;28;20031;-87
2021/07/03 02:43:48;;;;;;;15.65;10.98;;;16.70;96.10;;;;;;5069644;28;20032;-87
2021/07/03 02:46:14;;;;;;;14.00;11.75;;;16.70;96.10;;;;;;5056352;28;20659;-88
2021/07/03 02:48:40;;;;;;;17.17;12.00;;;16.70;96.20;;;;;;5066632;28;20502;-87
2021/07/03 02:51:05;;;;;;;13.77;11.35;;;16.60;96.20;;;;;;5059275;28;20020;-88
2021/07/03 02:53:31;;;;;;;16.42;11.73;;;16.60;96.20;;;;;;5071643;28;20023;-87
2021/07/03 02:55:57;;;;;;;14.52;11.52;;;16.60;96.10;;;;;;5057654;28;20107;-88
2021/07/03 02:58:23;;;;;;;15.50;12.05;;;16.60;96.30;;;;;;5048471;28;20085;-87
2021/07/03 03:00:48;;;;;;;17.27;12.25;;;16.60;96.30;;;;;;5058624;28;20027;-87
2021/07/03 03:03:14;;;;;;;16.85;12.77;;;16.50;96.40;;;;;;5067298;28;20042;-87
2021/07/03 03:05:40;;;;;;;17.95;13.82;;;16.50;96.50;;;;;;5050539;28;20025;-87
2021/07/03 03:08:05;;;;;;;23.95;13.38;;;16.50;96.70;;;;;;5058698;28;20028;-87
2021/07/03 03:10:31;;;;;;;17.90;13.15;;;16.50;96.80;;;;;;5071524;28;20024;-87
2021/07/03 03:12:56;;;;;;;17.98;13.18;;;16.50;96.80;;;;;;5113649;28;20699;-87
2021/07/03 03:15:22;;;;;;;19.10;13.57;;;16.50;96.90;;;;;;5074260;28;20061;-87
2021/07/03 03:17:48;;;;;;;18.50;13.57;;;16.50;97.00;;;;;;5066301;28;20027;-87
2021/07/03 03:20:13;;;;;;;18.77;13.63;;;16.50;97.10;;;;;;5026986;28;20440;-87
2021/07/03 03:22:41;;;;;;;17.88;14.13;;;16.50;97.10;;;;;;5062186;28;20017;-87
2021/07/03 03:25:08;;;;;;;18.88;14.32;;;16.50;97.10;;;;;;5069006;28;20033;-87
2021/07/03 03:27:34;;;;;;;18.30;14.20;;;16.50;97.20;;;;;;5081695;28;20486;-87
2021/07/03 03:30:00;;;;;;;21.77;15.68;;;16.50;97.30;;;;;;5060721;28;20382;-87
2021/07/03 03:32:26;;;;;;;21.23;15.07;;;16.50;97.30;;;;;;5065240;28;20020;-87
2021/07/03 03:34:51;;;;;;;23.17;17.10;;;16.50;97.30;;;;;;5082171;28;20012;-87
2021/07/03 03:37:32;;;;;;;21.88;15.80;;;16.50;97.40;;;;;;5073656;28;20469;-87
2021/07/03 03:39:59;;;;;;;19.85;14.73;;;16.50;97.40;;;;;;5071520;28;20047;-88
2021/07/03 03:42:25;;;;;;;21.63;15.63;;;16.50;97.40;;;;;;5046036;28;20478;-88
2021/07/03 03:44:50;;;;;;;21.80;15.95;;;16.50;97.40;;;;;;5083918;28;20107;-87
2021/07/03 03:47:16;;;;;;;22.10;17.30;;;16.50;97.40;;;;;;5054239;28;20044;-87
2021/07/03 03:49:42;;;;;;;22.60;16.60;;;16.50;97.50;;;;;;5056204;28;20131;-87
2021/07/03 03:52:09;;;;;;;22.90;16.15;;;16.50;97.50;;;;;;5049972;28;20017;-87
2021/07/03 03:54:35;;;;;;;21.63;16.17;;;16.50;97.50;;;;;;5049050;28;20060;-86
2021/07/03 03:59:45;;;;;;;22.60;15.45;;;16.50;97.60;;;;;;5092938;28;20047;-86
2021/07/03 04:02:11;;;;;;;22.02;16.25;;;16.50;97.60;;;;;;5068155;28;20028;-86
2021/07/03 04:04:36;;;;;;;24.88;17.20;;;16.50;97.70;;;;;;5046958;28;20064;-86
2021/07/03 04:07:02;;;;;;;22.90;16.23;;;16.50;97.70;;;;;;5037739;28;20119;-86
2021/07/03 04:09:28;;;;;;;24.48;17.58;;;16.60;97.80;;;;;;5064927;28;20099;-86
2021/07/03 04:11:55;;;;;;;21.80;16.65;;;16.60;97.90;;;;;;5056384;28;20075;-86
2021/07/03 04:14:21;;;;;;;23.00;17.80;;;16.60;98.20;;;;;;5049083;23;20578;-86
2021/07/03 04:16:47;;;;;;;20.33;15.40;;;16.60;97.90;;;;;;5054286;28;20029;-88
2021/07/03 04:19:12;;;;;;;20.90;15.40;;;16.60;98.00;;;;;;5054480;28;20078;-87
2021/07/03 04:21:38;;;;;;;25.13;17.65;;;16.60;98.00;;;;;;5056837;28;20103;-87
2021/07/03 04:24:04;;;;;;;23.65;16.95;;;16.60;98.00;;;;;;5071856;28;20038;-87
2021/07/03 04:26:30;;;;;;;22.10;16.33;;;16.60;98.00;;;;;;5073979;28;20040;-87
2021/07/03 04:28:55;;;;;;;24.65;17.58;;;16.60;98.00;;;;;;5074184;28;20024;-87
2021/07/03 04:31:21;;;;;;;23.88;16.95;;;16.60;98.10;;;;;;5054033;28;20029;-87
2021/07/03 04:33:47;;;;;;;24.33;17.70;;;16.60;98.10;;;;;;5053060;28;20024;-87
2021/07/03 04:36:12;;;;;;;24.65;17.10;;;16.60;98.10;;;;;;5051305;28;20042;-87
2021/07/03 04:38:38;;;;;;;28.10;17.70;;;16.60;98.10;;;;;;5059599;28;20385;-87
2021/07/03 04:41:04;;;;;;;27.88;18.52;;;16.60;98.10;;;;;;5041263;28;20488;-87
2021/07/03 04:43:30;;;;;;;28.70;18.42;;;16.60;98.10;;;;;;5041657;28;20039;-87
2021/07/03 04:45:56;;;;;;;33.00;20.15;;;16.60;98.10;;;;;;5074257;28;20107;-87
2021/07/03 04:48:21;;;;;;;34.97;19.38;;;16.60;98.10;;;;;;5069660;28;20400;-88
2021/07/03 04:50:47;;;;;;;31.58;19.05;;;16.60;98.20;;;;;;5063809;28;20024;-87
2021/07/03 04:53:13;;;;;;;31.38;19.67;;;16.60;98.20;;;;;;5044367;28;20388;-87
2021/07/03 04:55:38;;;;;;;29.83;18.98;;;16.60;98.20;;;;;;5077560;28;20020;-87
2021/07/03 04:58:04;;;;;;;32.40;19.05;;;16.60;98.30;;;;;;5057555;28;20389;-87
2021/07/03 05:00:30;;;;;;;34.00;20.13;;;16.60;98.30;;;;;;5054201;28;20036;-87
2021/07/03 05:02:55;;;;;;;29.88;18.63;;;16.60;98.30;;;;;;5058317;28;20106;-87
2021/07/03 05:05:21;;;;;;;31.17;18.92;;;16.60;98.30;;;;;;5061365;28;20036;-87
2021/07/03 05:07:47;;;;;;;28.73;18.80;;;16.60;98.40;;;;;;5060974;28;20024;-87
2021/07/03 05:10:12;;;;;;;32.05;19.30;;;16.60;98.40;;;;;;5060885;28;20119;-87
2021/07/03 05:12:38;;;;;;;30.33;19.05;;;16.60;98.40;;;;;;5058398;28;20082;-87
2021/07/03 05:15:04;;;;;;;28.20;19.60;;;16.60;98.40;;;;;;5057312;28;20119;-87
2021/07/03 05:17:30;;;;;;;29.75;18.73;;;16.60;98.40;;;;;;5077442;28;20123;-87
2021/07/03 05:19:56;;;;;;;29.65;19.95;;;16.60;98.40;;;;;;5077057;28;20451;-87
2021/07/03 05:22:22;;;;;;;29.30;19.33;;;16.60;98.50;;;;;;5077283;28;20511;-87
2021/07/03 05:24:48;;;;;;;31.55;19.33;;;16.60;98.50;;;;;;5077286;28;20039;-87
2021/07/03 05:27:13;;;;;;;28.35;18.70;;;16.60;98.50;;;;;;5040131;28;20387;-87
2021/07/03 05:29:39;;;;;;;26.75;18.90;;;16.70;98.50;;;;;;5043565;28;20033;-87
2021/07/03 05:32:05;;;;;;;31.38;20.27;;;16.70;98.60;;;;;;5068291;28;20026;-87
2021/07/03 05:34:30;;;;;;;28.02;19.13;;;16.70;98.60;;;;;;5040297;28;20502;-87
2021/07/03 05:36:57;;;;;;;27.50;18.70;;;16.70;98.60;;;;;;5060550;28;20020;-88
2021/07/03 05:39:23;;;;;;;25.95;18.83;;;16.70;98.70;;;;;;5076882;28;20123;-87
2021/07/03 05:41:49;;;;;;;26.67;19.40;;;16.80;98.70;;;;;;5063647;28;20480;-87
2021/07/03 05:44:15;;;;;;;26.42;18.95;;;16.80;98.70;;;;;;5084774;28;20020;-88
2021/07/03 05:46:41;;;;;;;26.83;18.17;;;16.80;98.70;;;;;;5037699;28;20038;-87
2021/07/03 05:49:07;;;;;;;27.27;19.20;;;16.80;98.70;;;;;;5076568;28;20016;-87
2021/07/03 05:51:32;;;;;;;25.88;18.92;;;16.90;98.80;;;;;;5057028;28;20024;-87
2021/07/03 05:53:58;;;;;;;27.70;19.48;;;16.90;98.80;;;;;;5058371;28;20027;-87
2021/07/03 05:56:26;;;;;;;28.27;19.88;;;16.90;98.80;;;;;;5076532;28;20452;-87
2021/07/03 05:58:52;;;;;;;26.77;19.58;;;17.00;98.90;;;;;;5074273;28;20028;-87
2021/07/03 06:01:17;;;;;;;29.48;20.83;;;17.00;98.90;;;;;;5083140;28;20432;-87
2021/07/03 06:03:43;;;;;;;28.05;20.23;;;17.00;98.90;;;;;;5056569;28;20067;-87
2021/07/03 06:06:10;;;;;;;31.83;21.67;;;17.10;98.90;;;;;;5047515;28;20017;-87
2021/07/03 06:08:36;;;;;;;30.85;20.63;;;17.10;98.90;;;;;;5069024;28;20028;-87
2021/07/03 06:11:02;;;;;;;28.60;20.02;;;17.10;98.90;;;;;;5041223;28;20048;-87
2021/07/03 06:13:28;;;;;;;29.35;19.98;;;17.10;99.00;;;;;;5092827;28;20504;-87
2021/07/03 06:15:54;;;;;;;27.98;20.42;;;17.20;99.00;;;;;;5051007;28;20043;-87
2021/07/03 06:18:19;;;;;;;25.45;18.88;;;17.20;99.00;;;;;;5083008;28;20040;-87
2021/07/03 06:20:45;;;;;;;27.85;19.92;;;17.30;99.10;;;;;;5058763;28;20496;-87
2021/07/03 06:23:11;;;;;;;26.17;19.30;;;17.30;99.10;;;;;;5053878;28;20119;-87
2021/07/03 06:26:05;;;;;;;28.52;21.58;;;17.40;99.10;;;;;;5059372;28;20028;-87
2021/07/03 06:28:32;;;;;;;32.05;21.98;;;17.40;99.20;;;;;;5075478;28;20481;-87
2021/07/03 06:30:58;;;;;;;32.90;22.23;;;17.40;99.20;;;;;;5074878;28;20098;-87
2021/07/03 06:33:23;;;;;;;30.08;22.50;;;17.50;99.20;;;;;;5075845;28;20020;-87
2021/07/03 06:35:50;;;;;;;30.30;21.23;;;17.50;99.20;;;;;;5055572;28;20127;-87
2021/07/03 06:38:16;;;;;;;30.48;21.48;;;17.60;99.20;;;;;;5075547;28;20111;-88
2021/07/03 06:40:42;;;;;;;27.23;19.67;;;17.60;99.20;;;;;;5056096;28;20471;-87
2021/07/03 06:43:08;;;;;;;31.25;22.02;;;17.70;99.30;;;;;;5052596;28;20040;-87
2021/07/03 06:45:34;;;;;;;30.67;21.63;;;17.70;99.30;;;;;;5075895;28;20112;-88
2021/07/03 06:47:59;;;;;;;34.33;23.80;;;17.80;99.60;;;;;;5064844;28;20123;-87
2021/07/03 06:50:26;;;;;;;35.28;24.27;;;17.80;99.30;;;;;;5058651;28;20038;-87
2021/07/03 06:52:51;;;;;;;31.35;23.10;;;17.90;99.30;;;;;;5075892;28;20028;-88
2021/07/03 06:55:17;;;;;;;32.97;24.63;;;17.90;99.30;;;;;;5040030;28;20504;-87
2021/07/03 06:57:43;;;;;;;33.05;23.55;;;18.00;99.30;;;;;;5075206;28;20105;-88
2021/07/03 07:00:09;;;;;;;31.02;22.33;;;18.00;99.30;;;;;;5038905;28;20075;-87
2021/07/03 07:02:35;;;;;;;28.33;22.20;;;18.10;99.30;;;;;;5053902;28;20028;-88
2021/07/03 07:05:01;;;;;;;28.40;21.30;;;18.20;99.30;;;;;;5072140;28;20031;-88
2021/07/03 07:07:27;;;;;;;28.85;22.35;;;18.20;99.30;;;;;;5075752;28;20031;-87
2021/07/03 07:09:53;;;;;;;28.88;21.27;;;18.30;99.30;;;;;;5075264;28;20020;-87
2021/07/03 07:12:18;;;;;;;34.47;22.85;;;18.40;99.30;;;;;;5058770;28;20039;-88
2021/07/03 07:14:44;;;;;;;29.27;22.67;;;18.40;99.30;;;;;;5052662;28;20547;-87
2021/07/03 07:17:11;;;;;;;30.25;22.45;;;18.50;99.30;;;;;;5057350;28;20051;-87
2021/07/03 07:19:36;;;;;;;33.35;22.77;;;18.60;99.20;;;;;;5058675;28;20020;-87
2021/07/03 07:22:03;;;;;;;31.52;24.20;;;18.60;99.20;;;;;;5055532;28;20040;-87
2021/07/03 07:24:28;;;;;;;29.88;22.90;;;18.70;99.20;;;;;;5054984;28;20359;-88
2021/07/03 07:26:54;;;;;;;29.23;22.92;;;18.80;99.10;;;;;;5034431;28;20074;-88
2021/07/03 07:29:20;;;;;;;29.90;22.27;;;18.80;99.10;;;;;;5058308;28;20028;-87
2021/07/03 07:31:47;;;;;;;30.15;21.45;;;18.90;99.00;;;;;;5074782;28;20054;-88
2021/07/03 07:34:13;;;;;;;28.38;21.63;;;19.00;99.00;;;;;;5081255;28;20024;-88
2021/07/03 07:36:54;;;;;;;26.15;18.30;;;19.10;98.90;;;;;;5054911;28;20628;-88
2021/07/03 07:39:19;;;;;;;;;;;19.10;98.80;;;;;;5048421;28;20114;-88
2021/07/03 07:41:45;;;;;;;23.67;18.17;;;19.20;98.80;;;;;;5091564;28;19912;-88
2021/07/03 07:44:11;;;;;;;26.67;20.60;;;19.30;98.70;;;;;;5062667;28;20028;-88
2021/07/03 07:46:36;;;;;;;24.85;18.98;;;19.40;98.60;;;;;;5054611;28;20056;-87
2021/07/03 07:49:04;;;;;;;25.23;19.02;;;19.40;98.50;;;;;;5043916;28;20074;-88
2021/07/03 07:51:30;;;;;;;24.80;17.15;;;19.50;98.40;;;;;;5075017;28;20012;-88
2021/07/03 07:53:56;;;;;;;21.45;17.30;;;19.60;98.30;;;;;;5068846;28;20163;-87
2021/07/03 07:56:21;;;;;;;24.10;19.35;;;19.70;98.30;;;;;;5038150;28;20024;-88
2021/07/03 07:58:47;;;;;;;25.38;19.50;;;19.80;98.00;;;;;;5054023;28;20046;-88
2021/07/03 08:01:14;;;;;;;24.63;17.83;;;19.90;98.00;;;;;;5074233;28;20113;-86
2021/07/03 08:03:40;;;;;;;20.73;17.27;;;20.00;97.80;;;;;;5063500;28;20028;-87
2021/07/03 08:06:06;;;;;;;24.42;19.17;;;20.00;97.70;;;;;;5054077;28;20507;-87
2021/07/03 08:08:32;;;;;;;26.40;20.35;;;20.10;97.20;;;;;;5020724;28;20033;-86
2021/07/03 08:10:57;;;;;;;23.67;19.00;;;20.20;97.00;;;;;;5055491;28;20085;-87
2021/07/03 08:13:23;;;;;;;23.48;19.33;;;20.30;96.90;;;;;;5057499;28;20024;-87
2021/07/03 08:15:50;;;;;;;22.35;17.90;;;20.40;96.60;;;;;;5056451;28;20140;-87
2021/07/03 08:18:16;;;;;;;22.67;17.73;;;20.50;96.70;;;;;;5054053;28;20478;-87
2021/07/03 08:20:42;;;;;;;21.17;18.20;;;20.50;96.20;;;;;;5039779;28;20056;-87
2021/07/03 08:23:08;;;;;;;22.08;16.85;;;20.70;96.10;;;;;;5052417;28;20043;-87
2021/07/03 08:25:34;;;;;;;20.00;16.20;;;20.80;96.10;;;;;;5048565;28;20497;-87
2021/07/03 08:27:59;;;;;;;27.48;20.10;;;20.90;96.20;;;;;;5066740;28;20032;-88
2021/07/03 08:30:28;;;;;;;22.77;17.83;;;20.90;94.80;;;;;;5058574;28;20029;-87
2021/07/03 08:32:54;;;;;;;19.80;16.42;;;21.00;95.20;;;;;;5070390;28;20062;-87
2021/07/03 08:35:20;;;;;;;22.52;16.95;;;21.10;95.10;;;;;;5050335;28;20025;-87
2021/07/03 08:37:46;;;;;;;18.15;15.07;;;21.20;95.00;;;;;;5061431;28;20107;-87
2021/07/03 08:40:14;;;;;;;19.92;15.85;;;21.30;94.60;;;;;;5052559;28;20544;-87
2021/07/03 08:42:40;;;;;;;19.95;16.08;;;21.40;94.80;;;;;;5070060;28;20024;-87
2021/07/03 08:45:07;;;;;;;16.98;14.70;;;21.50;94.40;;;;;;5050643;28;20102;-87
2021/07/03 08:48:18;;;;;;;20.25;16.73;;;21.60;94.40;;;;;;5039249;28;20028;-87
2021/07/03 08:50:44;;;;;;;18.05;14.00;;;21.60;93.70;;;;;;5059194;28;20025;-87
2021/07/03 08:53:10;;;;;;;18.17;13.82;;;21.80;94.20;;;;;;5052089;28;20099;-87
2021/07/03 08:55:36;;;;;;;21.88;14.95;;;21.90;94.40;;;;;;5026247;28;20025;-87
2021/07/03 08:58:05;;;;;;;22.70;16.50;;;21.90;93.90;;;;;;5020793;28;20373;-87
2021/07/03 09:00:38;;;;;;;17.50;14.40;;;22.00;93.40;;;;;;5048052;28;20048;-88
2021/07/03 09:03:14;;;;;;;16.42;13.18;;;22.10;93.30;;;;;;5066113;28;20028;-88
2021/07/03 09:05:49;;;;;;;19.40;14.73;;;22.10;93.50;;;;;;5057806;28;20390;-87
2021/07/03 09:08:15;;;;;;;17.88;13.90;;;22.20;93.10;;;;;;5024838;28;20038;-83
2021/07/03 09:10:41;;;;;;;17.25;14.60;;;22.30;93.10;;;;;;5077403;28;20032;-82
2021/07/03 09:13:07;;;;;;;15.98;13.00;;;22.40;92.60;;;;;;5051149;28;20027;-82
2021/07/03 09:15:42;;;;;;;17.70;14.27;;;22.40;92.70;;;;;;5042623;28;20064;-82
2021/07/03 09:18:11;;;;;;;15.25;12.25;;;22.40;92.00;;;;;;5058737;28;20528;-82
2021/07/03 09:20:51;;;;;;;16.00;12.52;;;22.50;92.00;;;;;;5043730;28;20375;-82
2021/07/03 09:23:29;;;;;;;16.10;12.65;;;22.60;90.00;;;;;;5071237;28;20505;-82
2021/07/03 09:25:58;;;;;;;13.82;11.73;;;22.70;90.50;;;;;;5069731;28;20017;-82
2021/07/03 09:28:26;;;;;;;17.17;14.43;;;22.70;90.40;;;;;;5052986;28;20063;-81
2021/07/03 09:30:57;;;;;;;15.98;12.25;;;22.80;90.30;;;;;;5063892;28;20025;-80
2021/07/03 09:33:28;;;;;;;12.35;10.68;;;22.90;90.60;;;;;;5072580;28;20021;-79
2021/07/03 09:36:14;;;;;;;12.55;8.90;;;22.90;90.60;;;;;;5052679;28;20060;-80
2021/07/03 09:38:39;;;;;;;12.77;10.43;;;23.00;90.80;;;;;;5068580;28;20329;-80
2021/07/03 09:41:14;;;;;;;14.43;10.70;;;23.10;90.00;;;;;;5053923;28;20074;-80
2021/07/03 09:43:49;;;;;;;14.75;10.85;;;23.10;90.20;;;;;;5067836;28;20035;-80
2021/07/03 09:46:27;;;;;;;15.70;11.88;;;23.20;90.20;;;;;;5071674;28;20539;-80
2021/07/03 09:48:55;;;;;;;16.23;11.77;;;23.20;90.00;;;;;;5063255;28;20476;-81
2021/07/03 09:51:32;;;;;;;15.68;11.07;;;23.30;89.80;;;;;;5081663;28;20024;-80
2021/07/03 09:53:59;;;;;;;12.32;9.40;;;23.40;89.50;;;;;;5061058;28;20013;-80
2021/07/03 09:56:26;;;;;;;12.15;8.88;;;23.40;89.60;;;;;;5055531;28;20393;-80
2021/07/03 09:58:52;;;;;;;9.55;7.03;;;23.50;88.30;;;;;;5039476;28;20025;-80
2021/07/03 10:01:18;;;;;;;9.77;7.57;;;23.50;88.50;;;;;;5052765;28;20127;-80
2021/07/03 10:03:44;;;;;;;11.48;9.02;;;23.60;88.50;;;;;;5055259;28;20418;-81
2021/07/03 10:06:14;;;;;;;10.23;7.63;;;23.60;87.00;;;;;;5056014;28;20129;-81
2021/07/03 10:08:43;;;;;;;9.32;7.55;;;23.70;87.20;;;;;;5073569;28;20047;-80
2021/07/03 10:11:15;;;;;;;9.75;7.75;;;23.80;87.70;;;;;;5055959;28;20039;-80
2021/07/03 10:13:43;;;;;;;14.63;8.57;;;23.80;87.00;;;;;;5063052;23;20053;-82
2021/07/03 10:16:09;;;;;;;8.95;7.10;;;23.80;85.20;;;;;;5032703;28;20049;-83
2021/07/03 10:18:36;;;;;;;8.95;6.90;;;23.90;85.60;;;;;;5055839;28;20048;-82
2021/07/03 10:21:22;;;;;;;8.63;6.70;;;24.00;85.30;;;;;;5071503;28;20031;-82
2021/07/03 10:23:47;;;;;;;11.30;7.55;;;24.10;85.70;;;;;;5074166;28;20031;-82
2021/07/03 10:26:14;;;;;;;10.70;9.10;;;24.10;85.50;;;;;;5048802;28;20033;-82
2021/07/03 10:28:42;;;;;;;11.85;8.13;;;24.20;83.60;;;;;;5074503;28;20428;-82
2021/07/03 10:31:11;;;;;;;9.60;7.22;;;24.20;83.60;;;;;;5079539;28;20024;-82
2021/07/03 10:33:43;;;;;;;9.00;7.20;;;24.30;83.30;;;;;;5078231;28;20096;-82
2021/07/03 10:36:09;;;;;;;8.20;6.80;;;24.30;83.60;;;;;;5065347;28;20021;-82
2021/07/03 10:38:40;;;;;;;9.57;7.15;;;24.40;84.10;;;;;;5032866;28;20516;-82
2021/07/03 10:41:23;;;;;;;8.48;7.57;;;24.50;84.00;;;;;;5052244;28;20020;-82
2021/07/03 10:44:06;;;;;;;9.77;7.47;;;24.50;83.00;;;;;;5054991;28;20048;-81
2021/07/03 10:46:34;;;;;;;9.73;7.68;;;24.60;82.60;;;;;;5056872;28;20020;-81
2021/07/03 10:49:01;;;;;;;9.75;7.10;;;24.70;82.50;;;;;;5054811;28;20020;-81
2021/07/03 10:51:47;;;;;;;8.32;6.70;;;24.70;82.60;;;;;;5064456;28;20060;-81
2021/07/03 10:54:21;;;;;;;9.05;6.70;;;24.80;82.20;;;;;;5040730;28;20059;-81
2021/07/03 10:56:50;;;;;;;7.72;6.10;;;24.90;82.90;;;;;;5068889;28;20075;-81
2021/07/03 10:59:23;;;;;;;8.10;5.78;;;24.90;83.30;;;;;;5050388;28;20036;-81
2021/07/03 11:01:50;;;;;;;8.68;6.70;;;25.00;83.10;;;;;;5066691;28;20031;-81
2021/07/03 11:04:21;;;;;;;7.28;5.80;;;25.00;81.40;;;;;;5055644;28;20035;-81
2021/07/03 11:06:54;;;;;;;9.00;6.05;;;25.10;81.70;;;;;;5050979;28;20024;-81
2021/07/03 11:09:30;;;;;;;8.65;6.10;;;25.10;81.70;;;;;;5066770;28;20040;-81
2021/07/03 11:12:09;;;;;;;8.07;6.30;;;25.10;81.20;;;;;;5038799;28;20072;-81
2021/07/03 11:14:55;;;;;;;6.55;5.47;;;25.20;82.20;;;;;;5046662;28;20049;-81
2021/07/03 11:17:26;;;;;;;7.70;6.20;;;25.30;82.40;;;;;;5064495;28;20109;-81
2021/07/03 11:19:54;;;;;;;7.65;5.97;;;25.40;81.80;;;;;;5065115;28;20029;-81
2021/07/03 11:22:25;;;;;;;8.82;7.15;;;25.40;80.90;;;;;;5048358;28;20036;-81
2021/07/03 11:24:52;;;;;;;8.32;6.25;;;25.50;79.80;;;;;;5072882;28;20040;-81
2021/07/03 11:27:32;;;;;;;9.25;6.40;;;25.50;79.20;;;;;;5071683;28;20024;-81
2021/07/03 11:29:59;;;;;;;7.65;6.38;;;25.50;77.30;;;;;;5055747;28;20059;-81
2021/07/03 11:32:25;;;;;;;7.28;6.00;;;25.60;78.80;;;;;;5072876;28;20020;-81
2021/07/03 11:34:54;;;;;;;6.75;5.88;;;25.70;77.40;;;;;;5036576;28;20047;-81
2021/07/03 11:37:33;;;;;;;12.68;6.13;;;25.70;77.70;;;;;;5073934;28;20020;-81
2021/07/03 11:40:11;;;;;;;15.85;7.65;;;25.80;77.80;;;;;;5044279;28;20029;-81
2021/07/03 11:42:42;;;;;;;9.65;6.47;;;25.80;76.50;;;;;;5062526;28;20025;-81
2021/07/03 11:45:08;;;;;;;;;;;25.90;77.70;;;;;;5059591;28;20013;-80
2021/07/03 11:47:37;;;;;;;11.50;5.82;;;25.90;75.60;;;;;;5039557;28;19981;-81
2021/07/03 11:50:06;;;;;;;17.13;5.90;;;25.90;77.90;;;;;;5073655;28;20078;-80
2021/07/03 11:52:42;;;;;;;8.20;6.03;;;26.00;78.70;;;;;;5058498;28;20025;-81
2021/07/03 11:55:09;;;;;;;7.22;5.80;;;26.00;77.10;;;;;;5038847;28;20024;-81
2021/07/03 11:57:43;;;;;;;7.75;5.43;;;26.00;78.10;;;;;;5051002;28;20025;-81
2021/07/03 12:00:27;;;;;;;6.35;5.22;;;26.00;78.40;;;;;;5041677;28;20387;-80
2021/07/03 12:02:54;;;;;;;7.22;6.10;;;26.00;75.30;;;;;;5054346;28;20475;-80
2021/07/03 12:05:27;;;;;;;6.22;5.25;;;26.10;76.80;;;;;;5055181;28;20035;-81
2021/07/03 12:08:01;;;;;;;7.22;5.97;;;26.10;77.10;;;;;;5081663;28;20028;-81
2021/07/03 12:10:35;;;;;;;7.03;6.07;;;26.10;76.00;;;;;;5073565;28;20034;-81
2021/07/03 12:13:00;;;;;;;8.20;5.53;;;26.10;74.10;;;;;;5081336;28;20023;-81
2021/07/03 12:15:27;;;;;;;7.60;5.35;;;26.10;75.30;;;;;;5075461;28;20033;-80
2021/07/03 12:18:08;;;;;;;8.13;5.82;;;26.10;76.00;;;;;;5048807;28;20497;-82
2021/07/03 12:20:34;;;;;;;7.95;5.53;;;26.10;75.10;;;;;;5034851;28;20016;-81
2021/07/03 12:23:23;;;;;;;6.70;5.70;;;26.10;75.00;;;;;;5067147;28;20055;-81
2021/07/03 12:25:50;;;;;;;6.82;5.70;;;26.10;75.50;;;;;;5053229;28;20525;-81
2021/07/03 12:28:16;;;;;;;7.47;6.30;;;26.10;75.80;;;;;;5045206;28;20509;-81
2021/07/03 12:30:42;;;;;;;7.85;5.80;;;26.10;74.50;;;;;;5034450;28;20025;-81
2021/07/03 12:33:09;;;;;;;7.22;5.65;;;26.10;74.20;;;;;;5022096;28;20029;-81
2021/07/03 12:35:43;;;;;;;7.32;6.15;;;26.10;74.20;;;;;;5035562;28;20417;-81